Main page
METAR-TAF:

METAR-TAF

Airports :

Esfahān, Iran

Isfahan International Airport

latitude: 32-28N, longitude: 051-43E, elevation: 1590 m

Current weather observation

The report was made 37 minutes ago, at 17:30 UTC
Wind 4 kt from the North/Northwest
Temperature 15°C
Humidity 59%
Pressure 1020 hPa
Visibility: 6000 m

METAR: OIFM 241730Z 34004KT 6000 NSC 15/07 Q1019 A3011

Time: 22:37 (18:07 UTC)

Forecast

The report was made 27 minutes ago, at 17:40 UTC
Forecast valid from 24 at 18 UTC to 25 at 24 UTC
Wind 8 kt from the North/Northwest
Visibility: 5000 m
Few clouds at a height of 3500 ft
haze
Becoming
from 25 at 06 UTC to 25 at 07 UTC
Wind 8 kt from the South/Southeast
Visibility: 7000 m
Temporary
from 25 at 10 UTC to 25 at 15 UTC
Wind 17 kt from the South/Southeast

TAF: OIFM 241740Z 2418/2524 33004MPS 5000 HZ FEW035 BECMG 2506/2507 15004MPS 7000 NSC TEMPO 2510/2515 15009MPS

Weather observations and forecasts of more than 4000 airports (METAR and TAF reports).

The available stations are represented by yellow and red dots on the map.

Hover mouse over dot to see the name of the station.

Then click to see weather observations and forecasts.

To change the map : click on the green buttons with a black cross to zoom in, on the green button with a dash to zoom out, or on the green arrows for adjacent maps.


METAR-TAF: